sensor_id;sensor_type;location;lat;lon;timestamp;P1;durP1;ratioP1;P2;durP2;ratioP2
59271;SDS011;45043;51.068;7.026;2023-06-26T00:01:16;6.30;;;5.80;;
59271;SDS011;45043;51.068;7.026;2023-06-26T00:04:17;6.40;;;5.87;;
59271;SDS011;45043;51.068;7.026;2023-06-26T00:07:17;6.73;;;6.13;;
59271;SDS011;45043;51.068;7.026;2023-06-26T00:10:18;6.90;;;6.30;;
59271;SDS011;45043;51.068;7.026;2023-06-26T00:13:18;6.97;;;6.27;;
59271;SDS011;45043;51.068;7.026;2023-06-26T00:16:19;6.90;;;6.40;;
59271;SDS011;45043;51.068;7.026;2023-06-26T00:19:19;6.57;;;5.97;;
59271;SDS011;45043;51.068;7.026;2023-06-26T00:22:21;6.90;;;6.27;;
59271;SDS011;45043;51.068;7.026;2023-06-26T00:25:21;6.23;;;5.73;;
59271;SDS011;45043;51.068;7.026;2023-06-26T00:28:22;7.03;;;6.33;;
59271;SDS011;45043;51.068;7.026;2023-06-26T00:31:22;6.83;;;6.23;;
59271;SDS011;45043;51.068;7.026;2023-06-26T00:34:23;6.17;;;5.57;;
59271;SDS011;45043;51.068;7.026;2023-06-26T00:37:23;6.47;;;5.80;;
59271;SDS011;45043;51.068;7.026;2023-06-26T00:40:24;6.67;;;6.07;;
59271;SDS011;45043;51.068;7.026;2023-06-26T00:43:26;6.30;;;5.80;;
59271;SDS011;45043;51.068;7.026;2023-06-26T00:46:27;6.57;;;5.70;;
59271;SDS011;45043;51.068;7.026;2023-06-26T00:49:27;6.13;;;5.63;;
59271;SDS011;45043;51.068;7.026;2023-06-26T00:52:28;6.33;;;5.80;;
59271;SDS011;45043;51.068;7.026;2023-06-26T00:55:29;9.00;;;6.30;;
59271;SDS011;45043;51.068;7.026;2023-06-26T00:58:30;6.77;;;6.17;;
59271;SDS011;45043;51.068;7.026;2023-06-26T01:01:31;6.17;;;5.47;;
59271;SDS011;45043;51.068;7.026;2023-06-26T01:04:31;7.50;;;6.27;;
59271;SDS011;45043;51.068;7.026;2023-06-26T01:07:33;6.20;;;5.57;;
59271;SDS011;45043;51.068;7.026;2023-06-26T01:10:36;6.90;;;6.30;;
59271;SDS011;45043;51.068;7.026;2023-06-26T01:13:36;6.87;;;6.17;;
59271;SDS011;45043;51.068;7.026;2023-06-26T01:16:39;6.50;;;5.90;;
59271;SDS011;45043;51.068;7.026;2023-06-26T01:19:42;6.70;;;5.87;;
59271;SDS011;45043;51.068;7.026;2023-06-26T01:26:20;6.70;;;6.10;;
59271;SDS011;45043;51.068;7.026;2023-06-26T01:29:22;7.40;;;6.17;;
59271;SDS011;45043;51.068;7.026;2023-06-26T01:32:23;6.63;;;6.10;;
59271;SDS011;45043;51.068;7.026;2023-06-26T01:35:24;7.23;;;6.13;;
59271;SDS011;45043;51.068;7.026;2023-06-26T01:38:25;6.70;;;6.03;;
59271;SDS011;45043;51.068;7.026;2023-06-26T01:41:31;6.80;;;6.20;;
59271;SDS011;45043;51.068;7.026;2023-06-26T01:44:32;6.50;;;6.00;;
59271;SDS011;45043;51.068;7.026;2023-06-26T01:47:40;6.80;;;6.20;;
59271;SDS011;45043;51.068;7.026;2023-06-26T01:50:49;7.40;;;6.70;;
59271;SDS011;45043;51.068;7.026;2023-06-26T01:53:52;7.30;;;6.60;;
59271;SDS011;45043;51.068;7.026;2023-06-26T01:56:56;6.80;;;6.30;;
59271;SDS011;45043;51.068;7.026;2023-06-26T01:59:58;6.70;;;5.87;;
59271;SDS011;45043;51.068;7.026;2023-06-26T02:03:00;6.63;;;6.07;;
59271;SDS011;45043;51.068;7.026;2023-06-26T02:06:00;6.40;;;5.90;;
59271;SDS011;45043;51.068;7.026;2023-06-26T02:09:01;9.60;;;6.20;;
59271;SDS011;45043;51.068;7.026;2023-06-26T02:12:04;6.70;;;6.10;;
59271;SDS011;45043;51.068;7.026;2023-06-26T02:15:05;6.77;;;6.03;;
59271;SDS011;45043;51.068;7.026;2023-06-26T02:18:07;6.80;;;6.20;;
59271;SDS011;45043;51.068;7.026;2023-06-26T02:21:08;6.73;;;6.13;;
59271;SDS011;45043;51.068;7.026;2023-06-26T02:24:09;6.40;;;5.80;;
59271;SDS011;45043;51.068;7.026;2023-06-26T02:27:09;6.43;;;5.83;;
59271;SDS011;45043;51.068;7.026;2023-06-26T02:30:10;6.53;;;5.93;;
59271;SDS011;45043;51.068;7.026;2023-06-26T02:33:10;6.43;;;5.93;;
59271;SDS011;45043;51.068;7.026;2023-06-26T02:36:11;6.20;;;5.70;;
59271;SDS011;45043;51.068;7.026;2023-06-26T02:39:14;6.60;;;6.00;;
59271;SDS011;45043;51.068;7.026;2023-06-26T02:42:15;7.67;;;6.17;;
59271;SDS011;45043;51.068;7.026;2023-06-26T02:45:15;7.20;;;6.50;;
59271;SDS011;45043;51.068;7.026;2023-06-26T02:48:16;6.47;;;5.97;;
59271;SDS011;45043;51.068;7.026;2023-06-26T02:51:17;7.10;;;6.40;;
59271;SDS011;45043;51.068;7.026;2023-06-26T02:54:17;7.20;;;6.50;;
59271;SDS011;45043;51.068;7.026;2023-06-26T02:57:21;6.90;;;6.30;;
59271;SDS011;45043;51.068;7.026;2023-06-26T03:00:21;6.83;;;6.33;;
59271;SDS011;45043;51.068;7.026;2023-06-26T03:03:24;7.43;;;6.73;;
59271;SDS011;45043;51.068;7.026;2023-06-26T03:06:24;7.60;;;6.90;;
59271;SDS011;45043;51.068;7.026;2023-06-26T03:09:25;7.20;;;6.50;;
59271;SDS011;45043;51.068;7.026;2023-06-26T03:12:26;6.63;;;6.03;;
59271;SDS011;45043;51.068;7.026;2023-06-26T03:15:26;7.57;;;6.83;;
59271;SDS011;45043;51.068;7.026;2023-06-26T03:18:28;8.10;;;7.40;;
59271;SDS011;45043;51.068;7.026;2023-06-26T03:21:28;7.80;;;7.03;;
59271;SDS011;45043;51.068;7.026;2023-06-26T03:24:29;7.80;;;7.00;;
59271;SDS011;45043;51.068;7.026;2023-06-26T03:27:29;8.30;;;7.30;;
59271;SDS011;45043;51.068;7.026;2023-06-26T03:30:30;7.97;;;7.27;;
59271;SDS011;45043;51.068;7.026;2023-06-26T03:33:32;8.10;;;7.30;;
59271;SDS011;45043;51.068;7.026;2023-06-26T03:36:33;7.83;;;7.03;;
59271;SDS011;45043;51.068;7.026;2023-06-26T03:39:34;8.60;;;7.00;;
59271;SDS011;45043;51.068;7.026;2023-06-26T03:42:35;8.07;;;7.03;;
59271;SDS011;45043;51.068;7.026;2023-06-26T03:45:35;8.33;;;7.53;;
59271;SDS011;45043;51.068;7.026;2023-06-26T03:48:36;8.20;;;7.50;;
59271;SDS011;45043;51.068;7.026;2023-06-26T03:51:37;8.27;;;7.07;;
59271;SDS011;45043;51.068;7.026;2023-06-26T03:54:38;9.97;;;7.20;;
59271;SDS011;45043;51.068;7.026;2023-06-26T03:57:38;7.60;;;6.87;;
59271;SDS011;45043;51.068;7.026;2023-06-26T04:00:39;7.47;;;6.77;;
59271;SDS011;45043;51.068;7.026;2023-06-26T04:03:40;8.73;;;6.73;;
59271;SDS011;45043;51.068;7.026;2023-06-26T04:06:41;9.40;;;6.77;;
59271;SDS011;45043;51.068;7.026;2023-06-26T04:09:41;7.17;;;6.50;;
59271;SDS011;45043;51.068;7.026;2023-06-26T04:12:42;7.50;;;6.77;;
59271;SDS011;45043;51.068;7.026;2023-06-26T04:15:42;6.87;;;6.17;;
59271;SDS011;45043;51.068;7.026;2023-06-26T04:18:43;7.83;;;6.70;;
59271;SDS011;45043;51.068;7.026;2023-06-26T04:21:43;8.17;;;6.33;;
59271;SDS011;45043;51.068;7.026;2023-06-26T04:24:44;6.97;;;6.27;;
59271;SDS011;45043;51.068;7.026;2023-06-26T04:27:46;7.80;;;6.93;;
59271;SDS011;45043;51.068;7.026;2023-06-26T04:30:46;8.00;;;6.77;;
59271;SDS011;45043;51.068;7.026;2023-06-26T04:33:47;8.90;;;6.50;;
59271;SDS011;45043;51.068;7.026;2023-06-26T04:36:50;8.37;;;6.30;;
59271;SDS011;45043;51.068;7.026;2023-06-26T04:39:51;8.03;;;6.43;;
59271;SDS011;45043;51.068;7.026;2023-06-26T04:42:52;7.43;;;6.73;;
59271;SDS011;45043;51.068;7.026;2023-06-26T04:45:52;8.07;;;5.87;;
59271;SDS011;45043;51.068;7.026;2023-06-26T04:48:52;7.90;;;6.00;;
59271;SDS011;45043;51.068;7.026;2023-06-26T04:51:54;8.37;;;6.70;;
59271;SDS011;45043;51.068;7.026;2023-06-26T04:54:55;7.27;;;6.57;;
59271;SDS011;45043;51.068;7.026;2023-06-26T04:57:55;7.97;;;6.43;;
59271;SDS011;45043;51.068;7.026;2023-06-26T05:00:55;8.23;;;6.30;;
59271;SDS011;45043;51.068;7.026;2023-06-26T05:03:56;8.87;;;6.20;;
59271;SDS011;45043;51.068;7.026;2023-06-26T05:06:56;7.77;;;6.53;;
59271;SDS011;45043;51.068;7.026;2023-06-26T05:09:57;6.83;;;6.03;;
59271;SDS011;45043;51.068;7.026;2023-06-26T05:12:57;7.13;;;5.93;;
59271;SDS011;45043;51.068;7.026;2023-06-26T05:15:58;6.90;;;6.30;;
59271;SDS011;45043;51.068;7.026;2023-06-26T05:18:58;6.53;;;5.93;;
59271;SDS011;45043;51.068;7.026;2023-06-26T05:21:59;10.27;;;6.23;;
59271;SDS011;45043;51.068;7.026;2023-06-26T05:25:03;7.30;;;6.60;;
59271;SDS011;45043;51.068;7.026;2023-06-26T05:28:05;6.83;;;6.10;;
59271;SDS011;45043;51.068;7.026;2023-06-26T05:31:05;8.67;;;6.30;;
59271;SDS011;45043;51.068;7.026;2023-06-26T05:34:06;6.93;;;5.77;;
59271;SDS011;45043;51.068;7.026;2023-06-26T05:37:07;6.47;;;5.60;;
59271;SDS011;45043;51.068;7.026;2023-06-26T05:40:09;6.63;;;5.80;;
59271;SDS011;45043;51.068;7.026;2023-06-26T05:43:10;6.83;;;5.90;;
59271;SDS011;45043;51.068;7.026;2023-06-26T05:46:11;7.10;;;5.80;;
59271;SDS011;45043;51.068;7.026;2023-06-26T05:49:11;6.60;;;6.00;;
59271;SDS011;45043;51.068;7.026;2023-06-26T05:52:12;9.40;;;5.77;;
59271;SDS011;45043;51.068;7.026;2023-06-26T05:55:13;7.03;;;5.67;;
59271;SDS011;45043;51.068;7.026;2023-06-26T05:58:13;9.50;;;5.80;;
59271;SDS011;45043;51.068;7.026;2023-06-26T06:01:14;7.60;;;5.77;;
59271;SDS011;45043;51.068;7.026;2023-06-26T06:04:15;5.80;;;5.20;;
59271;SDS011;45043;51.068;7.026;2023-06-26T06:07:15;6.30;;;5.70;;
59271;SDS011;45043;51.068;7.026;2023-06-26T06:10:15;7.37;;;5.80;;
59271;SDS011;45043;51.068;7.026;2023-06-26T06:13:16;6.83;;;5.20;;
59271;SDS011;45043;51.068;7.026;2023-06-26T06:16:17;7.73;;;5.60;;
59271;SDS011;45043;51.068;7.026;2023-06-26T06:19:20;6.23;;;5.50;;
59271;SDS011;45043;51.068;7.026;2023-06-26T06:22:23;9.20;;;5.70;;
59271;SDS011;45043;51.068;7.026;2023-06-26T06:25:24;8.67;;;5.70;;
59271;SDS011;45043;51.068;7.026;2023-06-26T06:28:24;6.07;;;5.47;;
59271;SDS011;45043;51.068;7.026;2023-06-26T06:31:25;8.10;;;5.70;;
59271;SDS011;45043;51.068;7.026;2023-06-26T06:34:31;6.47;;;5.40;;
59271;SDS011;45043;51.068;7.026;2023-06-26T06:37:42;8.50;;;5.57;;
59271;SDS011;45043;51.068;7.026;2023-06-26T06:40:46;8.20;;;5.20;;
59271;SDS011;45043;51.068;7.026;2023-06-26T06:43:47;8.27;;;5.60;;
59271;SDS011;45043;51.068;7.026;2023-06-26T06:46:47;5.90;;;5.30;;
59271;SDS011;45043;51.068;7.026;2023-06-26T06:49:48;6.77;;;5.73;;
59271;SDS011;45043;51.068;7.026;2023-06-26T06:52:48;9.17;;;6.37;;
59271;SDS011;45043;51.068;7.026;2023-06-26T06:55:52;7.50;;;5.50;;
59271;SDS011;45043;51.068;7.026;2023-06-26T06:58:52;10.13;;;5.97;;
59271;SDS011;45043;51.068;7.026;2023-06-26T07:01:52;7.83;;;5.57;;
59271;SDS011;45043;51.068;7.026;2023-06-26T07:04:53;8.60;;;5.50;;
59271;SDS011;45043;51.068;7.026;2023-06-26T07:07:53;8.60;;;5.27;;
59271;SDS011;45043;51.068;7.026;2023-06-26T07:10:53;9.23;;;5.30;;
59271;SDS011;45043;51.068;7.026;2023-06-26T07:13:55;10.07;;;5.90;;
59271;SDS011;45043;51.068;7.026;2023-06-26T07:16:55;8.60;;;5.77;;
59271;SDS011;45043;51.068;7.026;2023-06-26T07:19:55;8.37;;;5.43;;
59271;SDS011;45043;51.068;7.026;2023-06-26T07:22:56;9.67;;;6.17;;
59271;SDS011;45043;51.068;7.026;2023-06-26T07:25:57;7.27;;;6.20;;
59271;SDS011;45043;51.068;7.026;2023-06-26T07:28:58;8.77;;;5.37;;
59271;SDS011;45043;51.068;7.026;2023-06-26T07:32:01;9.17;;;5.90;;
59271;SDS011;45043;51.068;7.026;2023-06-26T07:35:05;9.47;;;5.87;;
59271;SDS011;45043;51.068;7.026;2023-06-26T07:38:06;7.77;;;5.33;;
59271;SDS011;45043;51.068;7.026;2023-06-26T07:41:06;10.17;;;6.07;;
59271;SDS011;45043;51.068;7.026;2023-06-26T07:44:07;11.47;;;6.00;;
59271;SDS011;45043;51.068;7.026;2023-06-26T07:47:07;15.27;;;6.17;;
59271;SDS011;45043;51.068;7.026;2023-06-26T07:50:08;9.03;;;5.83;;
59271;SDS011;45043;51.068;7.026;2023-06-26T07:53:12;8.20;;;6.00;;
59271;SDS011;45043;51.068;7.026;2023-06-26T07:56:14;8.30;;;5.83;;
59271;SDS011;45043;51.068;7.026;2023-06-26T07:59:15;13.53;;;6.17;;
59271;SDS011;45043;51.068;7.026;2023-06-26T08:02:16;9.10;;;5.83;;
59271;SDS011;45043;51.068;7.026;2023-06-26T08:05:17;8.27;;;5.63;;
59271;SDS011;45043;51.068;7.026;2023-06-26T08:08:17;10.93;;;6.40;;
59271;SDS011;45043;51.068;7.026;2023-06-26T08:11:17;7.90;;;6.00;;
59271;SDS011;45043;51.068;7.026;2023-06-26T08:14:18;10.67;;;5.80;;
59271;SDS011;45043;51.068;7.026;2023-06-26T08:17:18;15.93;;;6.30;;
59271;SDS011;45043;51.068;7.026;2023-06-26T08:20:19;9.03;;;5.70;;
59271;SDS011;45043;51.068;7.026;2023-06-26T08:23:20;12.73;;;5.77;;
59271;SDS011;45043;51.068;7.026;2023-06-26T08:26:22;9.43;;;5.60;;
59271;SDS011;45043;51.068;7.026;2023-06-26T08:29:25;10.10;;;5.27;;
59271;SDS011;45043;51.068;7.026;2023-06-26T08:32:26;9.90;;;5.63;;
59271;SDS011;45043;51.068;7.026;2023-06-26T08:35:26;7.50;;;5.30;;
59271;SDS011;45043;51.068;7.026;2023-06-26T08:38:26;16.30;;;6.73;;
59271;SDS011;45043;51.068;7.026;2023-06-26T08:41:27;12.87;;;6.57;;
59271;SDS011;45043;51.068;7.026;2023-06-26T08:44:27;11.83;;;5.97;;
59271;SDS011;45043;51.068;7.026;2023-06-26T08:47:28;11.90;;;5.87;;
59271;SDS011;45043;51.068;7.026;2023-06-26T08:54:08;12.43;;;6.63;;
59271;SDS011;45043;51.068;7.026;2023-06-26T08:57:17;10.10;;;5.53;;
59271;SDS011;45043;51.068;7.026;2023-06-26T09:00:19;10.50;;;5.97;;
59271;SDS011;45043;51.068;7.026;2023-06-26T09:03:20;10.67;;;6.30;;
59271;SDS011;45043;51.068;7.026;2023-06-26T09:06:25;9.13;;;5.37;;
59271;SDS011;45043;51.068;7.026;2023-06-26T09:09:29;7.60;;;5.87;;
59271;SDS011;45043;51.068;7.026;2023-06-26T09:12:30;8.93;;;5.47;;
59271;SDS011;45043;51.068;7.026;2023-06-26T09:15:38;8.03;;;5.00;;
59271;SDS011;45043;51.068;7.026;2023-06-26T09:18:41;10.00;;;5.27;;
59271;SDS011;45043;51.068;7.026;2023-06-26T09:21:45;13.13;;;5.70;;
59271;SDS011;45043;51.068;7.026;2023-06-26T09:24:50;11.93;;;4.97;;
59271;SDS011;45043;51.068;7.026;2023-06-26T09:27:51;11.97;;;5.40;;
59271;SDS011;45043;51.068;7.026;2023-06-26T09:30:52;8.77;;;4.93;;
59271;SDS011;45043;51.068;7.026;2023-06-26T09:33:55;9.57;;;5.70;;
59271;SDS011;45043;51.068;7.026;2023-06-26T09:36:59;12.63;;;5.63;;
59271;SDS011;45043;51.068;7.026;2023-06-26T09:40:03;11.03;;;5.83;;
59271;SDS011;45043;51.068;7.026;2023-06-26T09:43:09;12.87;;;6.07;;
59271;SDS011;45043;51.068;7.026;2023-06-26T09:46:16;9.90;;;5.87;;
59271;SDS011;45043;51.068;7.026;2023-06-26T09:49:18;10.10;;;5.73;;
59271;SDS011;45043;51.068;7.026;2023-06-26T09:52:19;9.10;;;5.47;;
59271;SDS011;45043;51.068;7.026;2023-06-26T09:55:20;7.17;;;5.37;;
59271;SDS011;45043;51.068;7.026;2023-06-26T09:58:22;11.07;;;6.07;;
59271;SDS011;45043;51.068;7.026;2023-06-26T10:01:25;9.17;;;4.93;;
59271;SDS011;45043;51.068;7.026;2023-06-26T10:04:25;8.33;;;5.00;;
59271;SDS011;45043;51.068;7.026;2023-06-26T10:07:26;8.93;;;5.33;;
59271;SDS011;45043;51.068;7.026;2023-06-26T10:10:27;11.10;;;4.97;;
59271;SDS011;45043;51.068;7.026;2023-06-26T10:13:30;12.00;;;5.17;;
59271;SDS011;45043;51.068;7.026;2023-06-26T10:16:35;10.53;;;5.40;;
59271;SDS011;45043;51.068;7.026;2023-06-26T10:19:39;7.60;;;4.23;;
59271;SDS011;45043;51.068;7.026;2023-06-26T10:22:43;10.30;;;5.10;;
59271;SDS011;45043;51.068;7.026;2023-06-26T10:25:45;9.37;;;5.07;;
59271;SDS011;45043;51.068;7.026;2023-06-26T10:28:51;6.77;;;4.50;;
59271;SDS011;45043;51.068;7.026;2023-06-26T10:31:54;5.47;;;4.30;;
59271;SDS011;45043;51.068;7.026;2023-06-26T10:34:57;6.40;;;4.43;;
59271;SDS011;45043;51.068;7.026;2023-06-26T10:38:02;7.43;;;4.13;;
59271;SDS011;45043;51.068;7.026;2023-06-26T10:41:10;8.23;;;4.20;;
59271;SDS011;45043;51.068;7.026;2023-06-26T10:44:12;7.30;;;3.77;;
59271;SDS011;45043;51.068;7.026;2023-06-26T10:47:29;8.60;;;4.27;;
59271;SDS011;45043;51.068;7.026;2023-06-26T10:50:32;5.07;;;3.73;;
59271;SDS011;45043;51.068;7.026;2023-06-26T10:53:35;5.13;;;3.60;;
59271;SDS011;45043;51.068;7.026;2023-06-26T10:56:48;8.10;;;4.37;;
59271;SDS011;45043;51.068;7.026;2023-06-26T10:59:55;8.17;;;4.13;;
59271;SDS011;45043;51.068;7.026;2023-06-26T11:03:22;6.23;;;3.70;;
59271;SDS011;45043;51.068;7.026;2023-06-26T11:06:23;10.77;;;4.40;;
59271;SDS011;45043;51.068;7.026;2023-06-26T11:09:24;10.27;;;4.03;;
59271;SDS011;45043;51.068;7.026;2023-06-26T11:12:43;8.53;;;4.33;;
59271;SDS011;45043;51.068;7.026;2023-06-26T11:15:49;7.17;;;3.80;;
59271;SDS011;45043;51.068;7.026;2023-06-26T11:18:50;8.80;;;4.10;;
59271;SDS011;45043;51.068;7.026;2023-06-26T11:21:51;7.17;;;3.50;;
59271;SDS011;45043;51.068;7.026;2023-06-26T11:24:53;5.93;;;2.97;;
59271;SDS011;45043;51.068;7.026;2023-06-26T11:27:54;6.43;;;3.37;;
59271;SDS011;45043;51.068;7.026;2023-06-26T11:30:55;4.23;;;3.13;;
59271;SDS011;45043;51.068;7.026;2023-06-26T11:33:55;7.90;;;3.03;;
59271;SDS011;45043;51.068;7.026;2023-06-26T11:36:57;9.10;;;3.10;;
59271;SDS011;45043;51.068;7.026;2023-06-26T11:40:22;8.10;;;3.00;;
59271;SDS011;45043;51.068;7.026;2023-06-26T11:43:22;7.37;;;2.93;;
59271;SDS011;45043;51.068;7.026;2023-06-26T11:46:23;6.93;;;3.20;;
59271;SDS011;45043;51.068;7.026;2023-06-26T11:49:23;5.83;;;3.00;;
59271;SDS011;45043;51.068;7.026;2023-06-26T11:52:26;7.53;;;3.13;;
59271;SDS011;45043;51.068;7.026;2023-06-26T11:55:39;3.00;;;2.67;;
59271;SDS011;45043;51.068;7.026;2023-06-26T11:59:00;5.27;;;2.90;;
59271;SDS011;45043;51.068;7.026;2023-06-26T12:02:07;5.50;;;2.80;;
59271;SDS011;45043;51.068;7.026;2023-06-26T12:05:19;4.30;;;3.47;;
59271;SDS011;45043;51.068;7.026;2023-06-26T12:08:20;4.47;;;2.63;;
59271;SDS011;45043;51.068;7.026;2023-06-26T12:11:21;5.13;;;3.50;;
59271;SDS011;45043;51.068;7.026;2023-06-26T12:14:25;5.27;;;2.57;;
59271;SDS011;45043;51.068;7.026;2023-06-26T12:17:29;4.20;;;2.50;;
59271;SDS011;45043;51.068;7.026;2023-06-26T12:20:30;4.10;;;2.30;;
59271;SDS011;45043;51.068;7.026;2023-06-26T12:23:32;3.27;;;2.47;;
59271;SDS011;45043;51.068;7.026;2023-06-26T12:26:35;5.63;;;2.70;;
59271;SDS011;45043;51.068;7.026;2023-06-26T12:29:40;4.73;;;2.90;;
59271;SDS011;45043;51.068;7.026;2023-06-26T12:32:47;4.10;;;2.37;;
59271;SDS011;45043;51.068;7.026;2023-06-26T12:35:48;6.07;;;2.87;;
59271;SDS011;45043;51.068;7.026;2023-06-26T12:38:48;3.23;;;2.50;;
59271;SDS011;45043;51.068;7.026;2023-06-26T12:41:53;6.83;;;2.33;;
59271;SDS011;45043;51.068;7.026;2023-06-26T12:44:56;4.93;;;2.67;;
59271;SDS011;45043;51.068;7.026;2023-06-26T12:48:17;6.10;;;2.50;;
59271;SDS011;45043;51.068;7.026;2023-06-26T12:51:18;5.03;;;3.10;;
59271;SDS011;45043;51.068;7.026;2023-06-26T12:54:19;4.80;;;2.77;;
59271;SDS011;45043;51.068;7.026;2023-06-26T12:57:20;5.57;;;2.43;;
59271;SDS011;45043;51.068;7.026;2023-06-26T13:00:20;4.97;;;2.23;;
59271;SDS011;45043;51.068;7.026;2023-06-26T13:03:32;4.37;;;2.27;;
59271;SDS011;45043;51.068;7.026;2023-06-26T13:06:33;5.43;;;2.20;;
59271;SDS011;45043;51.068;7.026;2023-06-26T13:09:37;4.00;;;2.10;;
59271;SDS011;45043;51.068;7.026;2023-06-26T13:12:38;2.93;;;2.00;;
59271;SDS011;45043;51.068;7.026;2023-06-26T13:15:39;3.00;;;2.17;;
59271;SDS011;45043;51.068;7.026;2023-06-26T13:18:40;5.73;;;2.00;;
59271;SDS011;45043;51.068;7.026;2023-06-26T13:21:40;2.70;;;1.93;;
59271;SDS011;45043;51.068;7.026;2023-06-26T13:24:42;4.77;;;1.83;;
59271;SDS011;45043;51.068;7.026;2023-06-26T13:27:43;4.63;;;1.90;;
59271;SDS011;45043;51.068;7.026;2023-06-26T13:30:43;3.87;;;2.00;;
59271;SDS011;45043;51.068;7.026;2023-06-26T13:33:44;2.90;;;1.80;;
59271;SDS011;45043;51.068;7.026;2023-06-26T13:36:46;3.27;;;2.07;;
59271;SDS011;45043;51.068;7.026;2023-06-26T13:39:47;2.37;;;1.70;;
59271;SDS011;45043;51.068;7.026;2023-06-26T13:42:49;3.77;;;2.20;;
59271;SDS011;45043;51.068;7.026;2023-06-26T13:45:50;3.73;;;2.00;;
59271;SDS011;45043;51.068;7.026;2023-06-26T13:48:50;4.63;;;2.07;;
59271;SDS011;45043;51.068;7.026;2023-06-26T13:51:51;5.10;;;2.00;;
59271;SDS011;45043;51.068;7.026;2023-06-26T13:54:51;6.33;;;1.97;;
59271;SDS011;45043;51.068;7.026;2023-06-26T13:57:52;5.77;;;2.07;;
59271;SDS011;45043;51.068;7.026;2023-06-26T14:00:52;4.60;;;2.00;;
59271;SDS011;45043;51.068;7.026;2023-06-26T14:03:54;8.07;;;2.27;;
59271;SDS011;45043;51.068;7.026;2023-06-26T14:06:54;4.80;;;2.00;;
59271;SDS011;45043;51.068;7.026;2023-06-26T14:09:54;2.30;;;2.10;;
59271;SDS011;45043;51.068;7.026;2023-06-26T14:12:55;5.37;;;2.03;;
59271;SDS011;45043;51.068;7.026;2023-06-26T14:15:55;3.17;;;2.00;;
59271;SDS011;45043;51.068;7.026;2023-06-26T14:18:56;4.87;;;2.10;;
59271;SDS011;45043;51.068;7.026;2023-06-26T14:21:57;3.40;;;1.87;;
59271;SDS011;45043;51.068;7.026;2023-06-26T14:24:59;6.23;;;1.93;;
59271;SDS011;45043;51.068;7.026;2023-06-26T14:28:00;4.27;;;2.03;;
59271;SDS011;45043;51.068;7.026;2023-06-26T14:31:01;5.70;;;2.37;;
59271;SDS011;45043;51.068;7.026;2023-06-26T14:34:02;6.17;;;2.20;;
59271;SDS011;45043;51.068;7.026;2023-06-26T14:37:08;4.67;;;2.13;;
59271;SDS011;45043;51.068;7.026;2023-06-26T14:40:09;2.27;;;2.00;;
59271;SDS011;45043;51.068;7.026;2023-06-26T14:43:10;9.40;;;2.40;;
59271;SDS011;45043;51.068;7.026;2023-06-26T14:46:11;6.77;;;2.37;;
59271;SDS011;45043;51.068;7.026;2023-06-26T14:49:12;4.33;;;2.30;;
59271;SDS011;45043;51.068;7.026;2023-06-26T14:52:13;3.57;;;2.17;;
59271;SDS011;45043;51.068;7.026;2023-06-26T14:55:13;4.00;;;2.13;;
59271;SDS011;45043;51.068;7.026;2023-06-26T14:58:14;2.87;;;1.80;;
59271;SDS011;45043;51.068;7.026;2023-06-26T15:01:14;4.30;;;2.07;;
59271;SDS011;45043;51.068;7.026;2023-06-26T15:04:19;4.07;;;2.23;;
59271;SDS011;45043;51.068;7.026;2023-06-26T15:07:20;8.40;;;2.20;;
59271;SDS011;45043;51.068;7.026;2023-06-26T15:10:20;5.13;;;1.80;;
59271;SDS011;45043;51.068;7.026;2023-06-26T15:13:21;3.77;;;1.93;;
59271;SDS011;45043;51.068;7.026;2023-06-26T15:16:22;3.57;;;2.30;;
59271;SDS011;45043;51.068;7.026;2023-06-26T15:19:22;4.50;;;2.07;;
59271;SDS011;45043;51.068;7.026;2023-06-26T15:22:23;5.10;;;2.20;;
59271;SDS011;45043;51.068;7.026;2023-06-26T15:25:27;4.43;;;1.90;;
59271;SDS011;45043;51.068;7.026;2023-06-26T15:28:28;5.57;;;2.00;;
59271;SDS011;45043;51.068;7.026;2023-06-26T15:31:29;2.57;;;1.83;;
59271;SDS011;45043;51.068;7.026;2023-06-26T15:34:30;3.37;;;2.03;;
59271;SDS011;45043;51.068;7.026;2023-06-26T15:37:35;3.53;;;2.17;;
59271;SDS011;45043;51.068;7.026;2023-06-26T15:40:37;4.63;;;2.20;;
59271;SDS011;45043;51.068;7.026;2023-06-26T15:43:37;3.87;;;1.90;;
59271;SDS011;45043;51.068;7.026;2023-06-26T15:46:39;7.37;;;2.20;;
59271;SDS011;45043;51.068;7.026;2023-06-26T15:49:39;4.83;;;2.90;;
59271;SDS011;45043;51.068;7.026;2023-06-26T15:52:42;3.57;;;2.77;;
59271;SDS011;45043;51.068;7.026;2023-06-26T15:55:43;3.57;;;2.10;;
59271;SDS011;45043;51.068;7.026;2023-06-26T15:58:44;3.07;;;2.30;;
59271;SDS011;45043;51.068;7.026;2023-06-26T16:01:46;2.73;;;2.33;;
59271;SDS011;45043;51.068;7.026;2023-06-26T16:04:48;4.00;;;2.40;;
59271;SDS011;45043;51.068;7.026;2023-06-26T16:07:49;3.47;;;2.10;;
59271;SDS011;45043;51.068;7.026;2023-06-26T16:10:49;3.30;;;2.10;;
59271;SDS011;45043;51.068;7.026;2023-06-26T16:13:50;3.90;;;2.30;;
59271;SDS011;45043;51.068;7.026;2023-06-26T16:16:52;1.87;;;1.77;;
59271;SDS011;45043;51.068;7.026;2023-06-26T16:19:52;4.90;;;2.10;;
59271;SDS011;45043;51.068;7.026;2023-06-26T16:22:53;1.83;;;1.70;;
59271;SDS011;45043;51.068;7.026;2023-06-26T16:25:55;3.93;;;2.20;;
59271;SDS011;45043;51.068;7.026;2023-06-26T16:28:55;3.93;;;2.10;;
59271;SDS011;45043;51.068;7.026;2023-06-26T16:31:56;3.67;;;2.20;;
59271;SDS011;45043;51.068;7.026;2023-06-26T16:34:56;3.03;;;1.80;;
59271;SDS011;45043;51.068;7.026;2023-06-26T16:37:57;4.67;;;2.47;;
59271;SDS011;45043;51.068;7.026;2023-06-26T16:40:57;4.77;;;2.50;;
59271;SDS011;45043;51.068;7.026;2023-06-26T16:43:58;3.83;;;2.67;;
59271;SDS011;45043;51.068;7.026;2023-06-26T16:46:58;2.80;;;1.80;;
59271;SDS011;45043;51.068;7.026;2023-06-26T16:49:59;4.27;;;2.10;;
59271;SDS011;45043;51.068;7.026;2023-06-26T16:52:59;3.17;;;2.00;;
59271;SDS011;45043;51.068;7.026;2023-06-26T16:55:59;2.70;;;1.70;;
59271;SDS011;45043;51.068;7.026;2023-06-26T16:59:00;3.80;;;1.73;;
59271;SDS011;45043;51.068;7.026;2023-06-26T17:02:00;4.03;;;1.90;;
59271;SDS011;45043;51.068;7.026;2023-06-26T17:05:02;3.30;;;1.80;;
59271;SDS011;45043;51.068;7.026;2023-06-26T17:08:02;7.37;;;1.90;;
59271;SDS011;45043;51.068;7.026;2023-06-26T17:11:04;4.23;;;1.83;;
59271;SDS011;45043;51.068;7.026;2023-06-26T17:14:05;5.47;;;1.80;;
59271;SDS011;45043;51.068;7.026;2023-06-26T17:17:06;2.27;;;1.90;;
59271;SDS011;45043;51.068;7.026;2023-06-26T17:20:07;3.17;;;2.00;;
59271;SDS011;45043;51.068;7.026;2023-06-26T17:23:09;2.00;;;1.80;;
59271;SDS011;45043;51.068;7.026;2023-06-26T17:26:09;2.03;;;1.83;;
59271;SDS011;45043;51.068;7.026;2023-06-26T17:29:10;2.47;;;1.53;;
59271;SDS011;45043;51.068;7.026;2023-06-26T17:32:10;3.33;;;1.60;;
59271;SDS011;45043;51.068;7.026;2023-06-26T17:35:10;3.20;;;1.50;;
59271;SDS011;45043;51.068;7.026;2023-06-26T17:38:11;2.13;;;1.57;;
59271;SDS011;45043;51.068;7.026;2023-06-26T17:41:13;2.40;;;1.77;;
59271;SDS011;45043;51.068;7.026;2023-06-26T17:44:15;2.90;;;1.83;;
59271;SDS011;45043;51.068;7.026;2023-06-26T17:47:15;1.87;;;1.57;;
59271;SDS011;45043;51.068;7.026;2023-06-26T17:50:16;1.80;;;1.70;;
59271;SDS011;45043;51.068;7.026;2023-06-26T17:53:16;3.40;;;2.00;;
59271;SDS011;45043;51.068;7.026;2023-06-26T17:56:18;3.13;;;2.03;;
59271;SDS011;45043;51.068;7.026;2023-06-26T17:59:18;2.77;;;2.20;;
59271;SDS011;45043;51.068;7.026;2023-06-26T18:02:19;3.97;;;2.37;;
59271;SDS011;45043;51.068;7.026;2023-06-26T18:05:19;2.93;;;1.80;;
59271;SDS011;45043;51.068;7.026;2023-06-26T18:08:20;2.00;;;1.83;;
59271;SDS011;45043;51.068;7.026;2023-06-26T18:11:20;4.10;;;1.70;;
59271;SDS011;45043;51.068;7.026;2023-06-26T18:14:21;2.83;;;2.40;;
59271;SDS011;45043;51.068;7.026;2023-06-26T18:17:21;4.97;;;2.50;;
59271;SDS011;45043;51.068;7.026;2023-06-26T18:20:22;3.10;;;1.80;;